sensor_id;sensor_type;location;lat;lon;timestamp;P1;durP1;ratioP1;P2;durP2;ratioP2
29838;SDS011;18669;53.356;-1.464;2023-09-12T00:00:45;17.38;;;10.25;;
29838;SDS011;18669;53.356;-1.464;2023-09-12T00:03:30;17.35;;;10.82;;
29838;SDS011;18669;53.356;-1.464;2023-09-12T00:06:16;19.33;;;10.88;;
29838;SDS011;18669;53.356;-1.464;2023-09-12T00:09:00;24.08;;;11.82;;
29838;SDS011;18669;53.356;-1.464;2023-09-12T00:11:45;17.23;;;9.52;;
29838;SDS011;18669;53.356;-1.464;2023-09-12T00:14:30;17.25;;;10.85;;
29838;SDS011;18669;53.356;-1.464;2023-09-12T00:17:15;17.10;;;9.35;;
29838;SDS011;18669;53.356;-1.464;2023-09-12T00:20:00;16.50;;;8.73;;
29838;SDS011;18669;53.356;-1.464;2023-09-12T00:22:45;15.75;;;8.60;;
29838;SDS011;18669;53.356;-1.464;2023-09-12T00:25:30;12.32;;;7.90;;
29838;SDS011;18669;53.356;-1.464;2023-09-12T00:28:15;15.40;;;8.07;;
29838;SDS011;18669;53.356;-1.464;2023-09-12T00:31:00;12.00;;;7.90;;
29838;SDS011;18669;53.356;-1.464;2023-09-12T00:33:44;12.32;;;7.32;;
29838;SDS011;18669;53.356;-1.464;2023-09-12T00:36:29;11.05;;;7.72;;
29838;SDS011;18669;53.356;-1.464;2023-09-12T00:39:14;20.00;;;7.85;;
29838;SDS011;18669;53.356;-1.464;2023-09-12T00:41:59;10.25;;;7.88;;
29838;SDS011;18669;53.356;-1.464;2023-09-12T00:44:44;12.13;;;8.20;;
29838;SDS011;18669;53.356;-1.464;2023-09-12T00:47:29;10.25;;;7.03;;
29838;SDS011;18669;53.356;-1.464;2023-09-12T00:50:15;13.38;;;6.85;;
29838;SDS011;18669;53.356;-1.464;2023-09-12T00:53:01;9.25;;;5.88;;
29838;SDS011;18669;53.356;-1.464;2023-09-12T00:55:51;12.75;;;5.90;;
29838;SDS011;18669;53.356;-1.464;2023-09-12T00:58:40;10.38;;;6.03;;
29838;SDS011;18669;53.356;-1.464;2023-09-12T01:01:25;15.48;;;5.88;;
29838;SDS011;18669;53.356;-1.464;2023-09-12T01:04:11;9.30;;;5.40;;
29838;SDS011;18669;53.356;-1.464;2023-09-12T01:06:56;6.93;;;4.32;;
29838;SDS011;18669;53.356;-1.464;2023-09-12T01:09:41;5.10;;;3.75;;
29838;SDS011;18669;53.356;-1.464;2023-09-12T01:12:26;5.35;;;4.10;;
29838;SDS011;18669;53.356;-1.464;2023-09-12T01:15:11;5.60;;;4.20;;
29838;SDS011;18669;53.356;-1.464;2023-09-12T01:17:58;6.78;;;4.00;;
29838;SDS011;18669;53.356;-1.464;2023-09-12T01:30:05;10.32;;;5.90;;
29838;SDS011;18669;53.356;-1.464;2023-09-12T01:32:53;11.32;;;5.95;;
29838;SDS011;18669;53.356;-1.464;2023-09-12T01:35:38;6.75;;;5.35;;
29838;SDS011;18669;53.356;-1.464;2023-09-12T01:38:23;9.25;;;5.72;;
29838;SDS011;18669;53.356;-1.464;2023-09-12T01:41:08;8.15;;;5.00;;
29838;SDS011;18669;53.356;-1.464;2023-09-12T01:43:53;8.45;;;4.70;;
29838;SDS011;18669;53.356;-1.464;2023-09-12T01:49:25;9.50;;;3.97;;
29838;SDS011;18669;53.356;-1.464;2023-09-12T01:52:13;4.97;;;3.03;;
29838;SDS011;18669;53.356;-1.464;2023-09-12T01:54:58;4.22;;;2.85;;
29838;SDS011;18669;53.356;-1.464;2023-09-12T01:57:44;3.92;;;2.75;;
29838;SDS011;18669;53.356;-1.464;2023-09-12T02:00:29;3.97;;;2.90;;
29838;SDS011;18669;53.356;-1.464;2023-09-12T02:03:13;3.10;;;2.20;;
29838;SDS011;18669;53.356;-1.464;2023-09-12T02:05:58;3.92;;;2.08;;
29838;SDS011;18669;53.356;-1.464;2023-09-12T02:08:43;5.43;;;2.80;;
29838;SDS011;18669;53.356;-1.464;2023-09-12T02:11:28;4.60;;;2.63;;
29838;SDS011;18669;53.356;-1.464;2023-09-12T02:14:13;3.90;;;2.80;;
29838;SDS011;18669;53.356;-1.464;2023-09-12T02:16:57;7.15;;;3.20;;
29838;SDS011;18669;53.356;-1.464;2023-09-12T02:19:42;3.67;;;3.10;;
29838;SDS011;18669;53.356;-1.464;2023-09-12T02:22:27;5.82;;;3.75;;
29838;SDS011;18669;53.356;-1.464;2023-09-12T02:25:12;5.18;;;3.30;;
29838;SDS011;18669;53.356;-1.464;2023-09-12T02:27:57;7.85;;;3.65;;
29838;SDS011;18669;53.356;-1.464;2023-09-12T02:30:41;6.65;;;4.13;;
29838;SDS011;18669;53.356;-1.464;2023-09-12T02:33:27;9.52;;;3.28;;
29838;SDS011;18669;53.356;-1.464;2023-09-12T02:36:12;5.15;;;3.78;;
29838;SDS011;18669;53.356;-1.464;2023-09-12T02:38:57;8.10;;;3.75;;
29838;SDS011;18669;53.356;-1.464;2023-09-12T02:41:41;4.63;;;3.83;;
29838;SDS011;18669;53.356;-1.464;2023-09-12T02:44:26;5.10;;;3.42;;
29838;SDS011;18669;53.356;-1.464;2023-09-12T02:47:11;6.35;;;3.28;;
29838;SDS011;18669;53.356;-1.464;2023-09-12T02:49:56;6.72;;;3.08;;
29838;SDS011;18669;53.356;-1.464;2023-09-12T02:52:41;4.60;;;3.00;;
29838;SDS011;18669;53.356;-1.464;2023-09-12T02:55:25;6.63;;;3.20;;
29838;SDS011;18669;53.356;-1.464;2023-09-12T02:58:10;7.72;;;3.30;;
29838;SDS011;18669;53.356;-1.464;2023-09-12T03:00:55;7.07;;;3.13;;
29838;SDS011;18669;53.356;-1.464;2023-09-12T03:03:40;6.45;;;3.53;;
29838;SDS011;18669;53.356;-1.464;2023-09-12T03:06:25;6.28;;;4.43;;
29838;SDS011;18669;53.356;-1.464;2023-09-12T03:09:10;5.93;;;4.55;;
29838;SDS011;18669;53.356;-1.464;2023-09-12T03:11:55;5.00;;;3.83;;
29838;SDS011;18669;53.356;-1.464;2023-09-12T03:14:40;6.40;;;3.70;;
29838;SDS011;18669;53.356;-1.464;2023-09-12T03:17:25;7.03;;;3.50;;
29838;SDS011;18669;53.356;-1.464;2023-09-12T03:22:56;4.53;;;3.35;;
29838;SDS011;18669;53.356;-1.464;2023-09-12T03:25:41;5.68;;;4.18;;
29838;SDS011;18669;53.356;-1.464;2023-09-12T03:28:26;6.15;;;4.13;;
29838;SDS011;18669;53.356;-1.464;2023-09-12T03:31:13;6.05;;;4.30;;
29838;SDS011;18669;53.356;-1.464;2023-09-12T03:33:58;6.22;;;4.00;;
29838;SDS011;18669;53.356;-1.464;2023-09-12T03:36:43;5.72;;;3.33;;
29838;SDS011;18669;53.356;-1.464;2023-09-12T03:39:28;7.03;;;2.55;;
29838;SDS011;18669;53.356;-1.464;2023-09-12T03:42:13;4.15;;;2.60;;
29838;SDS011;18669;53.356;-1.464;2023-09-12T03:44:57;4.10;;;2.25;;
29838;SDS011;18669;53.356;-1.464;2023-09-12T03:47:42;1.98;;;1.70;;
29838;SDS011;18669;53.356;-1.464;2023-09-12T03:50:30;2.58;;;2.00;;
29838;SDS011;18669;53.356;-1.464;2023-09-12T03:53:15;3.00;;;2.40;;
29838;SDS011;18669;53.356;-1.464;2023-09-12T03:56:00;4.00;;;2.20;;
29838;SDS011;18669;53.356;-1.464;2023-09-12T03:58:45;5.75;;;2.70;;
29838;SDS011;18669;53.356;-1.464;2023-09-12T04:01:30;2.97;;;2.42;;
29838;SDS011;18669;53.356;-1.464;2023-09-12T04:04:15;5.70;;;3.15;;
29838;SDS011;18669;53.356;-1.464;2023-09-12T04:07:00;4.20;;;3.70;;
29838;SDS011;18669;53.356;-1.464;2023-09-12T04:09:45;4.85;;;4.35;;
29838;SDS011;18669;53.356;-1.464;2023-09-12T04:12:30;4.78;;;4.28;;
29838;SDS011;18669;53.356;-1.464;2023-09-12T04:15:15;5.75;;;5.10;;
29838;SDS011;18669;53.356;-1.464;2023-09-12T04:17:59;5.28;;;4.65;;
29838;SDS011;18669;53.356;-1.464;2023-09-12T04:20:44;8.30;;;5.90;;
29838;SDS011;18669;53.356;-1.464;2023-09-12T04:23:29;10.55;;;6.47;;
29838;SDS011;18669;53.356;-1.464;2023-09-12T04:26:14;8.98;;;7.05;;
29838;SDS011;18669;53.356;-1.464;2023-09-12T04:28:59;7.78;;;6.95;;
29838;SDS011;18669;53.356;-1.464;2023-09-12T04:31:44;7.90;;;6.95;;
29838;SDS011;18669;53.356;-1.464;2023-09-12T04:34:29;7.97;;;7.18;;
29838;SDS011;18669;53.356;-1.464;2023-09-12T04:37:14;6.68;;;6.05;;
29838;SDS011;18669;53.356;-1.464;2023-09-12T04:39:59;6.60;;;5.50;;
29838;SDS011;18669;53.356;-1.464;2023-09-12T04:42:44;6.63;;;5.88;;
29838;SDS011;18669;53.356;-1.464;2023-09-12T04:45:29;8.45;;;6.38;;
29838;SDS011;18669;53.356;-1.464;2023-09-12T04:48:14;6.30;;;5.55;;
29838;SDS011;18669;53.356;-1.464;2023-09-12T04:50:58;8.27;;;6.30;;
29838;SDS011;18669;53.356;-1.464;2023-09-12T04:53:43;7.43;;;5.78;;
29838;SDS011;18669;53.356;-1.464;2023-09-12T04:56:29;8.05;;;6.32;;
29838;SDS011;18669;53.356;-1.464;2023-09-12T04:59:14;8.82;;;6.00;;
29838;SDS011;18669;53.356;-1.464;2023-09-12T05:01:58;6.22;;;4.75;;
29838;SDS011;18669;53.356;-1.464;2023-09-12T05:04:43;7.13;;;4.60;;
29838;SDS011;18669;53.356;-1.464;2023-09-12T05:07:28;5.00;;;4.10;;
29838;SDS011;18669;53.356;-1.464;2023-09-12T05:10:16;5.97;;;3.80;;
29838;SDS011;18669;53.356;-1.464;2023-09-12T05:13:00;5.82;;;3.17;;
29838;SDS011;18669;53.356;-1.464;2023-09-12T05:15:46;3.70;;;2.70;;
29838;SDS011;18669;53.356;-1.464;2023-09-12T05:18:31;6.53;;;2.80;;
29838;SDS011;18669;53.356;-1.464;2023-09-12T05:21:16;5.15;;;2.58;;
29838;SDS011;18669;53.356;-1.464;2023-09-12T05:24:00;6.78;;;2.30;;
29838;SDS011;18669;53.356;-1.464;2023-09-12T05:26:45;8.27;;;2.80;;
29838;SDS011;18669;53.356;-1.464;2023-09-12T05:29:31;3.35;;;2.60;;
29838;SDS011;18669;53.356;-1.464;2023-09-12T05:32:16;4.13;;;2.40;;
29838;SDS011;18669;53.356;-1.464;2023-09-12T05:35:01;4.68;;;2.50;;
29838;SDS011;18669;53.356;-1.464;2023-09-12T05:37:46;3.40;;;2.20;;
29838;SDS011;18669;53.356;-1.464;2023-09-12T05:40:31;3.97;;;3.00;;
29838;SDS011;18669;53.356;-1.464;2023-09-12T05:43:16;3.45;;;2.80;;
29838;SDS011;18669;53.356;-1.464;2023-09-12T05:46:01;3.47;;;3.03;;
29838;SDS011;18669;53.356;-1.464;2023-09-12T05:48:46;3.45;;;3.08;;
29838;SDS011;18669;53.356;-1.464;2023-09-12T05:51:31;3.80;;;2.78;;
29838;SDS011;18669;53.356;-1.464;2023-09-12T05:54:16;3.42;;;2.70;;
29838;SDS011;18669;53.356;-1.464;2023-09-12T05:57:01;4.43;;;3.17;;
29838;SDS011;18669;53.356;-1.464;2023-09-12T05:59:46;4.55;;;3.20;;
29838;SDS011;18669;53.356;-1.464;2023-09-12T06:02:31;4.07;;;3.13;;
29838;SDS011;18669;53.356;-1.464;2023-09-12T06:05:17;8.13;;;3.30;;
29838;SDS011;18669;53.356;-1.464;2023-09-12T06:08:02;3.92;;;2.75;;
29838;SDS011;18669;53.356;-1.464;2023-09-12T06:10:48;7.00;;;2.78;;
29838;SDS011;18669;53.356;-1.464;2023-09-12T06:13:37;2.92;;;2.20;;
29838;SDS011;18669;53.356;-1.464;2023-09-12T06:16:22;3.40;;;1.98;;
29838;SDS011;18669;53.356;-1.464;2023-09-12T06:19:07;5.75;;;2.17;;
29838;SDS011;18669;53.356;-1.464;2023-09-12T06:21:52;1.52;;;1.42;;
29838;SDS011;18669;53.356;-1.464;2023-09-12T06:24:37;5.70;;;1.75;;
29838;SDS011;18669;53.356;-1.464;2023-09-12T06:27:23;1.90;;;1.75;;
29838;SDS011;18669;53.356;-1.464;2023-09-12T06:30:08;4.95;;;1.90;;
29838;SDS011;18669;53.356;-1.464;2023-09-12T06:32:53;1.75;;;1.60;;
29838;SDS011;18669;53.356;-1.464;2023-09-12T06:35:38;5.50;;;1.60;;
29838;SDS011;18669;53.356;-1.464;2023-09-12T06:38:23;2.30;;;1.50;;
29838;SDS011;18669;53.356;-1.464;2023-09-12T06:41:08;1.30;;;1.20;;
29838;SDS011;18669;53.356;-1.464;2023-09-12T06:43:53;1.98;;;1.30;;
29838;SDS011;18669;53.356;-1.464;2023-09-12T06:46:41;1.42;;;1.25;;
29838;SDS011;18669;53.356;-1.464;2023-09-12T06:49:26;2.90;;;1.50;;
29838;SDS011;18669;53.356;-1.464;2023-09-12T06:52:10;2.63;;;1.25;;
29838;SDS011;18669;53.356;-1.464;2023-09-12T06:54:55;2.55;;;1.60;;
29838;SDS011;18669;53.356;-1.464;2023-09-12T06:57:40;1.52;;;1.13;;
29838;SDS011;18669;53.356;-1.464;2023-09-12T07:00:26;3.15;;;1.73;;
29838;SDS011;18669;53.356;-1.464;2023-09-12T07:03:11;3.33;;;1.63;;
29838;SDS011;18669;53.356;-1.464;2023-09-12T07:05:56;1.92;;;1.40;;
29838;SDS011;18669;53.356;-1.464;2023-09-12T07:08:42;2.05;;;1.50;;
29838;SDS011;18669;53.356;-1.464;2023-09-12T07:11:26;1.48;;;1.30;;
29838;SDS011;18669;53.356;-1.464;2023-09-12T07:14:11;1.63;;;1.10;;
29838;SDS011;18669;53.356;-1.464;2023-09-12T07:16:56;6.85;;;3.90;;
29838;SDS011;18669;53.356;-1.464;2023-09-12T07:19:41;1.50;;;1.17;;
29838;SDS011;18669;53.356;-1.464;2023-09-12T07:22:26;2.58;;;1.15;;
29838;SDS011;18669;53.356;-1.464;2023-09-12T07:25:11;4.00;;;1.77;;
29838;SDS011;18669;53.356;-1.464;2023-09-12T07:27:58;4.10;;;1.75;;
29838;SDS011;18669;53.356;-1.464;2023-09-12T07:30:45;3.28;;;2.45;;
29838;SDS011;18669;53.356;-1.464;2023-09-12T07:33:30;6.10;;;2.03;;
29838;SDS011;18669;53.356;-1.464;2023-09-12T07:36:15;2.88;;;2.17;;
29838;SDS011;18669;53.356;-1.464;2023-09-12T07:39:00;5.00;;;2.40;;
29838;SDS011;18669;53.356;-1.464;2023-09-12T07:41:45;4.13;;;2.00;;
29838;SDS011;18669;53.356;-1.464;2023-09-12T07:44:30;5.40;;;2.33;;
29838;SDS011;18669;53.356;-1.464;2023-09-12T07:47:15;4.85;;;2.28;;
29838;SDS011;18669;53.356;-1.464;2023-09-12T07:50:00;3.17;;;2.15;;
29838;SDS011;18669;53.356;-1.464;2023-09-12T07:52:45;3.30;;;1.88;;
29838;SDS011;18669;53.356;-1.464;2023-09-12T07:55:30;1.95;;;1.60;;
29838;SDS011;18669;53.356;-1.464;2023-09-12T07:58:18;3.47;;;1.80;;
29838;SDS011;18669;53.356;-1.464;2023-09-12T08:01:07;2.90;;;1.60;;
29838;SDS011;18669;53.356;-1.464;2023-09-12T08:03:53;3.78;;;1.50;;
29838;SDS011;18669;53.356;-1.464;2023-09-12T08:06:37;2.13;;;1.52;;
29838;SDS011;18669;53.356;-1.464;2023-09-12T08:09:22;2.42;;;1.50;;
29838;SDS011;18669;53.356;-1.464;2023-09-12T08:12:07;1.27;;;1.00;;
29838;SDS011;18669;53.356;-1.464;2023-09-12T08:14:52;0.90;;;0.75;;
29838;SDS011;18669;53.356;-1.464;2023-09-12T08:17:38;0.93;;;0.82;;
29838;SDS011;18669;53.356;-1.464;2023-09-12T08:20:23;1.35;;;1.20;;
29838;SDS011;18669;53.356;-1.464;2023-09-12T08:23:08;1.20;;;1.10;;
29838;SDS011;18669;53.356;-1.464;2023-09-12T08:25:53;2.13;;;1.50;;
29838;SDS011;18669;53.356;-1.464;2023-09-12T08:28:38;2.20;;;1.30;;
29838;SDS011;18669;53.356;-1.464;2023-09-12T08:31:23;6.65;;;2.10;;
29838;SDS011;18669;53.356;-1.464;2023-09-12T08:34:08;1.45;;;1.20;;
29838;SDS011;18669;53.356;-1.464;2023-09-12T08:36:53;1.45;;;1.02;;
29838;SDS011;18669;53.356;-1.464;2023-09-12T08:39:42;2.28;;;1.55;;
29838;SDS011;18669;53.356;-1.464;2023-09-12T08:42:28;2.55;;;1.40;;
29838;SDS011;18669;53.356;-1.464;2023-09-12T08:45:18;1.63;;;1.50;;
29838;SDS011;18669;53.356;-1.464;2023-09-12T08:48:03;1.95;;;1.33;;
29838;SDS011;18669;53.356;-1.464;2023-09-12T08:50:52;2.05;;;1.60;;
29838;SDS011;18669;53.356;-1.464;2023-09-12T08:53:38;2.72;;;1.90;;
29838;SDS011;18669;53.356;-1.464;2023-09-12T08:56:22;2.65;;;1.60;;
29838;SDS011;18669;53.356;-1.464;2023-09-12T08:59:09;3.97;;;1.58;;
29838;SDS011;18669;53.356;-1.464;2023-09-12T09:01:55;2.42;;;1.70;;
29838;SDS011;18669;53.356;-1.464;2023-09-12T09:04:42;2.83;;;1.88;;
29838;SDS011;18669;53.356;-1.464;2023-09-12T09:07:29;2.08;;;1.60;;
29838;SDS011;18669;53.356;-1.464;2023-09-12T09:13:01;2.85;;;1.80;;
29838;SDS011;18669;53.356;-1.464;2023-09-12T09:15:48;3.60;;;2.72;;
29838;SDS011;18669;53.356;-1.464;2023-09-12T09:18:48;1.83;;;1.70;;
29838;SDS011;18669;53.356;-1.464;2023-09-12T09:21:35;2.25;;;1.50;;
29838;SDS011;18669;53.356;-1.464;2023-09-12T09:24:21;4.43;;;1.65;;
29838;SDS011;18669;53.356;-1.464;2023-09-12T09:27:07;3.17;;;2.00;;
29838;SDS011;18669;53.356;-1.464;2023-09-12T09:29:52;4.20;;;2.10;;
29838;SDS011;18669;53.356;-1.464;2023-09-12T09:32:37;2.42;;;1.77;;
29838;SDS011;18669;53.356;-1.464;2023-09-12T09:35:22;5.53;;;2.30;;
29838;SDS011;18669;53.356;-1.464;2023-09-12T09:38:07;4.07;;;2.40;;
29838;SDS011;18669;53.356;-1.464;2023-09-12T09:40:53;3.45;;;2.40;;
29838;SDS011;18669;53.356;-1.464;2023-09-12T09:43:38;4.05;;;2.17;;
29838;SDS011;18669;53.356;-1.464;2023-09-12T09:46:23;4.95;;;2.50;;
29838;SDS011;18669;53.356;-1.464;2023-09-12T09:49:10;3.33;;;2.13;;
29838;SDS011;18669;53.356;-1.464;2023-09-12T09:51:55;2.33;;;1.50;;
29838;SDS011;18669;53.356;-1.464;2023-09-12T09:54:44;2.90;;;1.80;;
29838;SDS011;18669;53.356;-1.464;2023-09-12T09:57:29;2.28;;;1.85;;
29838;SDS011;18669;53.356;-1.464;2023-09-12T10:00:14;7.07;;;2.40;;
29838;SDS011;18669;53.356;-1.464;2023-09-12T10:03:00;4.55;;;2.15;;
29838;SDS011;18669;53.356;-1.464;2023-09-12T10:05:49;2.38;;;1.80;;
29838;SDS011;18669;53.356;-1.464;2023-09-12T10:08:35;3.25;;;2.20;;
29838;SDS011;18669;53.356;-1.464;2023-09-12T10:11:26;5.32;;;2.03;;
29838;SDS011;18669;53.356;-1.464;2023-09-12T10:14:13;4.72;;;2.15;;
29838;SDS011;18669;53.356;-1.464;2023-09-12T10:17:01;4.10;;;2.42;;
29838;SDS011;18669;53.356;-1.464;2023-09-12T10:19:51;3.05;;;2.30;;
29838;SDS011;18669;53.356;-1.464;2023-09-12T10:22:42;1.95;;;1.67;;
29838;SDS011;18669;53.356;-1.464;2023-09-12T10:25:31;2.58;;;1.77;;
29838;SDS011;18669;53.356;-1.464;2023-09-12T10:28:17;1.60;;;1.50;;
29838;SDS011;18669;53.356;-1.464;2023-09-12T10:31:03;2.05;;;1.85;;
29838;SDS011;18669;53.356;-1.464;2023-09-12T10:33:49;6.50;;;1.55;;
29838;SDS011;18669;53.356;-1.464;2023-09-12T10:36:39;3.45;;;1.95;;
29838;SDS011;18669;53.356;-1.464;2023-09-12T10:39:24;2.90;;;1.70;;
29838;SDS011;18669;53.356;-1.464;2023-09-12T10:42:12;2.45;;;1.92;;
29838;SDS011;18669;53.356;-1.464;2023-09-12T10:44:57;3.22;;;2.65;;
29838;SDS011;18669;53.356;-1.464;2023-09-12T10:47:45;1.90;;;1.70;;
29838;SDS011;18669;53.356;-1.464;2023-09-12T10:50:31;2.67;;;2.47;;
29838;SDS011;18669;53.356;-1.464;2023-09-12T10:53:16;2.67;;;2.08;;
29838;SDS011;18669;53.356;-1.464;2023-09-12T11:01:56;2.63;;;2.25;;
29838;SDS011;18669;53.356;-1.464;2023-09-12T11:08:14;2.75;;;1.60;;
29838;SDS011;18669;53.356;-1.464;2023-09-12T11:11:18;2.33;;;1.63;;
29838;SDS011;18669;53.356;-1.464;2023-09-12T11:14:05;2.55;;;1.75;;
29838;SDS011;18669;53.356;-1.464;2023-09-12T11:19:51;2.33;;;1.60;;
29838;SDS011;18669;53.356;-1.464;2023-09-12T11:22:41;2.60;;;1.58;;
29838;SDS011;18669;53.356;-1.464;2023-09-12T11:25:29;3.63;;;1.77;;
29838;SDS011;18669;53.356;-1.464;2023-09-12T11:28:15;1.60;;;1.50;;
29838;SDS011;18669;53.356;-1.464;2023-09-12T11:31:03;2.20;;;1.65;;
29838;SDS011;18669;53.356;-1.464;2023-09-12T11:33:48;2.58;;;1.75;;
29838;SDS011;18669;53.356;-1.464;2023-09-12T11:36:37;3.00;;;1.85;;
29838;SDS011;18669;53.356;-1.464;2023-09-12T11:39:29;3.13;;;1.98;;
29838;SDS011;18669;53.356;-1.464;2023-09-12T11:42:15;2.72;;;2.00;;
29838;SDS011;18669;53.356;-1.464;2023-09-12T11:45:00;3.40;;;2.42;;
29838;SDS011;18669;53.356;-1.464;2023-09-12T11:47:46;3.25;;;2.33;;
29838;SDS011;18669;53.356;-1.464;2023-09-12T11:53:19;2.43;;;1.70;;
29838;SDS011;18669;53.356;-1.464;2023-09-12T11:56:09;4.25;;;1.95;;
29838;SDS011;18669;53.356;-1.464;2023-09-12T11:58:55;3.95;;;2.10;;
29838;SDS011;18669;53.356;-1.464;2023-09-12T12:01:40;6.55;;;2.22;;
29838;SDS011;18669;53.356;-1.464;2023-09-12T12:04:25;3.45;;;2.20;;
29838;SDS011;18669;53.356;-1.464;2023-09-12T12:07:10;2.20;;;1.88;;
29838;SDS011;18669;53.356;-1.464;2023-09-12T12:09:56;2.53;;;1.88;;
29838;SDS011;18669;53.356;-1.464;2023-09-12T12:12:41;5.03;;;2.05;;
29838;SDS011;18669;53.356;-1.464;2023-09-12T12:15:28;2.22;;;2.03;;
29838;SDS011;18669;53.356;-1.464;2023-09-12T12:18:13;2.25;;;1.90;;
29838;SDS011;18669;53.356;-1.464;2023-09-12T12:20:58;5.13;;;1.85;;
29838;SDS011;18669;53.356;-1.464;2023-09-12T12:23:43;3.72;;;1.95;;
29838;SDS011;18669;53.356;-1.464;2023-09-12T12:26:29;4.53;;;2.20;;
29838;SDS011;18669;53.356;-1.464;2023-09-12T12:32:00;5.13;;;2.85;;
29838;SDS011;18669;53.356;-1.464;2023-09-12T12:34:49;3.08;;;1.75;;
29838;SDS011;18669;53.356;-1.464;2023-09-12T12:37:35;9.20;;;2.90;;
29838;SDS011;18669;53.356;-1.464;2023-09-12T12:40:20;5.38;;;2.80;;
29838;SDS011;18669;53.356;-1.464;2023-09-12T12:43:05;5.70;;;2.72;;
29838;SDS011;18669;53.356;-1.464;2023-09-12T12:45:54;9.30;;;3.67;;
29838;SDS011;18669;53.356;-1.464;2023-09-12T12:48:43;15.35;;;5.93;;
29838;SDS011;18669;53.356;-1.464;2023-09-12T12:51:30;14.18;;;5.28;;
29838;SDS011;18669;53.356;-1.464;2023-09-12T12:54:21;7.60;;;4.03;;
29838;SDS011;18669;53.356;-1.464;2023-09-12T12:57:08;9.52;;;3.90;;
29838;SDS011;18669;53.356;-1.464;2023-09-12T12:59:58;10.98;;;3.15;;
29838;SDS011;18669;53.356;-1.464;2023-09-12T13:02:43;6.13;;;2.22;;
29838;SDS011;18669;53.356;-1.464;2023-09-12T13:05:29;5.78;;;2.20;;
29838;SDS011;18669;53.356;-1.464;2023-09-12T13:08:17;5.18;;;2.58;;
29838;SDS011;18669;53.356;-1.464;2023-09-12T13:11:02;3.47;;;2.00;;
29838;SDS011;18669;53.356;-1.464;2023-09-12T13:13:47;4.90;;;2.38;;
29838;SDS011;18669;53.356;-1.464;2023-09-12T13:16:34;5.57;;;2.03;;
29838;SDS011;18669;53.356;-1.464;2023-09-12T13:19:20;3.95;;;2.05;;
29838;SDS011;18669;53.356;-1.464;2023-09-12T13:22:04;4.07;;;2.22;;
29838;SDS011;18669;53.356;-1.464;2023-09-12T13:24:49;2.67;;;2.08;;
29838;SDS011;18669;53.356;-1.464;2023-09-12T13:27:34;4.40;;;2.80;;
29838;SDS011;18669;53.356;-1.464;2023-09-12T13:30:19;6.72;;;2.22;;
29838;SDS011;18669;53.356;-1.464;2023-09-12T13:33:04;4.30;;;2.10;;
29838;SDS011;18669;53.356;-1.464;2023-09-12T13:35:49;5.18;;;2.70;;
29838;SDS011;18669;53.356;-1.464;2023-09-12T13:38:34;6.28;;;2.70;;
29838;SDS011;18669;53.356;-1.464;2023-09-12T13:41:19;3.08;;;2.38;;
29838;SDS011;18669;53.356;-1.464;2023-09-12T13:44:06;4.45;;;2.63;;
29838;SDS011;18669;53.356;-1.464;2023-09-12T13:46:51;4.15;;;3.35;;
29838;SDS011;18669;53.356;-1.464;2023-09-12T13:49:36;4.03;;;2.35;;
29838;SDS011;18669;53.356;-1.464;2023-09-12T13:52:21;5.85;;;3.05;;
29838;SDS011;18669;53.356;-1.464;2023-09-12T13:55:06;5.90;;;3.05;;
29838;SDS011;18669;53.356;-1.464;2023-09-12T13:57:51;3.92;;;2.30;;
29838;SDS011;18669;53.356;-1.464;2023-09-12T14:00:36;2.97;;;1.85;;
29838;SDS011;18669;53.356;-1.464;2023-09-12T14:03:21;1.88;;;1.70;;
29838;SDS011;18669;53.356;-1.464;2023-09-12T14:06:05;5.85;;;1.90;;
29838;SDS011;18669;53.356;-1.464;2023-09-12T14:08:51;3.72;;;1.80;;
29838;SDS011;18669;53.356;-1.464;2023-09-12T14:11:36;3.55;;;2.33;;
29838;SDS011;18669;53.356;-1.464;2023-09-12T14:14:21;2.67;;;1.30;;
29838;SDS011;18669;53.356;-1.464;2023-09-12T14:17:06;2.08;;;1.40;;
29838;SDS011;18669;53.356;-1.464;2023-09-12T14:19:51;4.10;;;1.70;;
29838;SDS011;18669;53.356;-1.464;2023-09-12T14:22:36;2.00;;;1.42;;
29838;SDS011;18669;53.356;-1.464;2023-09-12T14:25:21;3.10;;;1.48;;
29838;SDS011;18669;53.356;-1.464;2023-09-12T14:28:06;4.75;;;1.85;;
29838;SDS011;18669;53.356;-1.464;2023-09-12T14:30:51;4.20;;;1.38;;
29838;SDS011;18669;53.356;-1.464;2023-09-12T14:33:37;4.93;;;2.22;;
29838;SDS011;18669;53.356;-1.464;2023-09-12T14:36:22;7.53;;;1.90;;
29838;SDS011;18669;53.356;-1.464;2023-09-12T14:39:06;3.90;;;1.90;;
29838;SDS011;18669;53.356;-1.464;2023-09-12T14:41:51;4.32;;;1.60;;
29838;SDS011;18669;53.356;-1.464;2023-09-12T14:44:36;3.20;;;1.75;;
29838;SDS011;18669;53.356;-1.464;2023-09-12T14:47:21;6.05;;;1.92;;
29838;SDS011;18669;53.356;-1.464;2023-09-12T14:50:06;3.75;;;1.75;;
29838;SDS011;18669;53.356;-1.464;2023-09-12T14:52:53;3.47;;;1.67;;
29838;SDS011;18669;53.356;-1.464;2023-09-12T14:55:37;4.80;;;1.85;;
29838;SDS011;18669;53.356;-1.464;2023-09-12T14:58:22;5.28;;;2.00;;
29838;SDS011;18669;53.356;-1.464;2023-09-12T15:01:07;3.00;;;2.20;;
29838;SDS011;18669;53.356;-1.464;2023-09-12T15:03:52;5.13;;;2.10;;
29838;SDS011;18669;53.356;-1.464;2023-09-12T15:06:38;5.80;;;2.00;;
29838;SDS011;18669;53.356;-1.464;2023-09-12T15:09:23;4.82;;;1.92;;
29838;SDS011;18669;53.356;-1.464;2023-09-12T15:12:08;5.05;;;1.90;;
29838;SDS011;18669;53.356;-1.464;2023-09-12T15:14:53;3.03;;;1.95;;
29838;SDS011;18669;53.356;-1.464;2023-09-12T15:17:38;4.72;;;2.08;;
29838;SDS011;18669;53.356;-1.464;2023-09-12T15:20:24;5.13;;;2.17;;
29838;SDS011;18669;53.356;-1.464;2023-09-12T15:23:09;9.32;;;2.83;;
29838;SDS011;18669;53.356;-1.464;2023-09-12T15:25:54;3.28;;;2.20;;
29838;SDS011;18669;53.356;-1.464;2023-09-12T15:28:39;2.85;;;1.70;;
29838;SDS011;18669;53.356;-1.464;2023-09-12T15:31:24;4.15;;;2.00;;
29838;SDS011;18669;53.356;-1.464;2023-09-12T15:34:09;3.15;;;1.90;;
29838;SDS011;18669;53.356;-1.464;2023-09-12T15:37:07;4.88;;;2.00;;
29838;SDS011;18669;53.356;-1.464;2023-09-12T15:39:55;5.85;;;2.22;;
29838;SDS011;18669;53.356;-1.464;2023-09-12T15:42:40;4.47;;;2.05;;
29838;SDS011;18669;53.356;-1.464;2023-09-12T15:45:25;6.65;;;2.25;;
29838;SDS011;18669;53.356;-1.464;2023-09-12T15:48:13;4.10;;;2.20;;
29838;SDS011;18669;53.356;-1.464;2023-09-12T15:50:57;5.43;;;1.75;;
29838;SDS011;18669;53.356;-1.464;2023-09-12T15:53:42;5.00;;;1.88;;
29838;SDS011;18669;53.356;-1.464;2023-09-12T15:56:27;1.70;;;1.40;;
29838;SDS011;18669;53.356;-1.464;2023-09-12T15:59:12;10.98;;;1.67;;
29838;SDS011;18669;53.356;-1.464;2023-09-12T16:01:57;7.90;;;2.08;;
29838;SDS011;18669;53.356;-1.464;2023-09-12T16:04:42;6.05;;;1.48;;
29838;SDS011;18669;53.356;-1.464;2023-09-12T16:07:27;12.70;;;1.77;;
29838;SDS011;18669;53.356;-1.464;2023-09-12T16:10:12;4.57;;;2.42;;
29838;SDS011;18669;53.356;-1.464;2023-09-12T16:12:58;6.43;;;1.90;;
29838;SDS011;18669;53.356;-1.464;2023-09-12T16:15:43;2.80;;;1.70;;
29838;SDS011;18669;53.356;-1.464;2023-09-12T16:18:28;3.85;;;1.88;;
29838;SDS011;18669;53.356;-1.464;2023-09-12T16:21:13;2.85;;;1.63;;
29838;SDS011;18669;53.356;-1.464;2023-09-12T16:23:58;4.88;;;1.50;;
29838;SDS011;18669;53.356;-1.464;2023-09-12T16:26:42;7.40;;;1.85;;
29838;SDS011;18669;53.356;-1.464;2023-09-12T16:29:27;6.65;;;1.52;;
29838;SDS011;18669;53.356;-1.464;2023-09-12T16:32:12;5.85;;;1.60;;
29838;SDS011;18669;53.356;-1.464;2023-09-12T16:34:57;8.13;;;1.63;;
29838;SDS011;18669;53.356;-1.464;2023-09-12T16:37:42;6.82;;;2.08;;
29838;SDS011;18669;53.356;-1.464;2023-09-12T16:40:27;5.20;;;1.88;;
29838;SDS011;18669;53.356;-1.464;2023-09-12T16:43:13;6.22;;;1.60;;
29838;SDS011;18669;53.356;-1.464;2023-09-12T16:45:58;5.15;;;2.00;;
29838;SDS011;18669;53.356;-1.464;2023-09-12T16:48:43;5.78;;;2.22;;
29838;SDS011;18669;53.356;-1.464;2023-09-12T16:51:27;7.13;;;2.05;;
29838;SDS011;18669;53.356;-1.464;2023-09-12T16:54:12;5.05;;;2.00;;
29838;SDS011;18669;53.356;-1.464;2023-09-12T16:56:57;5.03;;;2.35;;